Details for Emirates SkyCargo at OMDW




Go Back


Latest METAR
Local Time

OMDW 180600Z 18016KT 6000 NSC 39/12 Q0998 NOSIG
18/08/2018, 10:29:43

Description
Results
Emirates SkyCargo Logo
Number of Pilots based at OMDW
0 Pilots Based here
Number of Emirates SkyCargo Flights Departed from OMDW
0 Flights Departed
Number of Emirates SkyCargo Flights Arrived at OMDW
0 Flights Arrived
Number of Emirates SkyCargo Schedules Departing from OMDW
57 Schedules
Number of Emirates SkyCargo Schedules Arriving at OMDW
54 Schedules
Number of Emirates SkyCargo Schedules Departing from OMDW availible today
13 Schedules Today
Number of Emirates SkyCargo Schedules Arriving at OMDW availible today
13 Schedules Today
Average Landing Rate at OMDW
0 fpm
Emirates SkyCargo Average Landing Rate at OMDW
0 fpm
Total Fuel Purchased at OMDW by Emirates SkyCargo
0.00 kgs / 0.00 lbs

Pilots Based at OMDW


Pilot ID
Pilot Name
Pilot Rank
No. of Flights
No. of Flying Hours
There are no pilots assigned to this hub!   Will you be the first?
Content